• Join FlightAware (Why Join?)
  • Login
  • US Flag 
03:19PM EDT


 

Airport Tracker/Info


-or-


 

Live Flight TrackerFlight Track Log ✈ FLG3735 ✈ 21-Jun-2013 ✈ KDTW - KALB

Flight Track Log - Related Links

Times and Time Zones

All times are in EDT time to prevent confusion due to time zone crossing. See the FLG3735 flight status page for this flight to view local times or setup timezone preferences in your user account.

Time Position Orientation Groundspeed Altitude Reporting Facility
EDT Latitude Longitude Course Direction KTS MPH feet Rate Location/Type
10:22PM 42.1994 -83.3581 71° East 157 181 1,200  Level Cleveland Center
10:22PM 42.1786 -83.3544 173° South 168 193 2,200 1,980 Climbing Cleveland Center
10:24PM 42.1267 -83.3464 173° South 200 230 4,300 1,860 Climbing Cleveland Center
10:25PM 42.2883 -82.8920 75° East  Level FlightAware Approximate
10:25PM 42.0908 -83.2861 129° Southeast 273 314 6,100  Level Cleveland Center
10:25PM 42.1086 -83.2281 68° East 288 331 7,200 2,100 Climbing Cleveland Center
10:26PM 42.3177 -82.7392 82° East  Level FlightAware Approximate
10:26PM 42.1378 -83.1397 66° East 306 352 9,400  Level Cleveland Center
10:27PM 42.3335 -82.5826 71° East  Level FlightAware Approximate
10:27PM 42.1736 -83.0347 65° Northeast 311 358 10,800  Level Cleveland Center
10:28PM 42.2156 -82.9100 66° East 328 377 12,400 1,500 Climbing Cleveland Center
10:29PM 42.2578 -82.7883 65° Northeast 345 397 13,900 1,440 Climbing Cleveland Center
10:30PM 42.2956 -82.6547 69° East 358 412 15,300 1,380 Climbing Cleveland Center
10:31PM 42.2939 -82.5117 91° East 375 432 16,700 1,260 Climbing Cleveland Center
10:32PM 42.2900 -82.3628 92° East 375 432 17,900 900 Climbing Cleveland Center
10:33PM 42.2861 -82.2083 92° East 392 451 18,500 960 Climbing Cleveland Center
10:34PM 42.2839 -82.0567 91° East 408 470 19,900 1,080 Climbing Cleveland Center
10:35PM 42.2817 -81.8994 91° East 413 475 20,700 780 Climbing Cleveland Center
10:36PM 42.2792 -81.7394 91° East 423 487 21,500 840 Climbing Cleveland Center
10:37PM 42.2725 -81.5625 93° East 423 487 22,400 780 Climbing Cleveland Center
10:38PM 42.2697 -81.4025 91° East 423 487 23,100 600 Climbing Cleveland Center
10:39PM 42.2644 -81.2342 92° East 429 494 23,700 600 Climbing Cleveland Center
10:40PM 42.2592 -81.0714 92° East 434 499 24,300 540 Climbing Cleveland Center
10:41PM 42.2575 -80.9086 91° East 434 499 24,900 600 Climbing Cleveland Center
10:42PM 42.2725 -80.7458 83° East 439 505 25,500 600 Climbing Cleveland Center
10:43PM 42.2872 -80.5803 83° East 439 505 26,100 540 Climbing Cleveland Center
10:44PM 42.3017 -80.4147 83° East 445 512 26,600 420 Climbing Cleveland Center
10:45PM 42.3181 -80.2658 81° East 445 512 27,000 180 Climbing Cleveland Center
10:46PM 42.3342 -80.0917 83° East 453 521 27,000  Level Cleveland Center
10:47PM 42.3519 -79.9033 83° East 461 531 27,000  Level Cleveland Center
10:48PM 42.3653 -79.7261 84° East 466 536 27,000  Level Cleveland Center
10:49PM 42.3847 -79.5431 82° East 476 548 27,000  Level Cleveland Center
10:50PM 42.3997 -79.3631 84° East 481 554 27,000  Level Cleveland Center
10:51PM 42.4164 -79.1797 83° East 486 559 27,000  Level Cleveland Center
10:52PM 42.4306 -78.9967 84° East 486 559 27,000  Level Cleveland Center
10:53PM 42.4489 -78.8161 82° East 486 559 27,000  Level Cleveland Center
10:54PM 42.4625 -78.6356 84° East 486 559 27,000  Level Cleveland Center
10:55PM 42.4781 -78.4492 83° East 486 559 27,000  Level Cleveland Center
10:56PM 42.4911 -78.2631 85° East 486 559 27,000  Level Cleveland Center
10:57PM 42.5061 -78.0792 84° East 486 559 27,000  Level Cleveland Center
10:58PM 42.5186 -77.8986 85° East 486 559 27,000  Level Cleveland Center
10:59PM 42.5308 -77.7119 85° East 486 559 27,000  Level Cleveland Center
11:00PM 42.5469 -77.5308 83° East 486 559 27,000  Level Cleveland Center
11:02PM 42.5725 -77.1267 85° East 504 580 27,000  Level Boston Center
11:03PM 42.5861 -76.9444 84° East 494 568 27,000 -120 Level Boston Center
11:05PM 42.6108 -76.5708 85° East 494 568 26,700 -480 Descending Boston Center
11:06PM 42.6219 -76.3794 85° East 499 574 25,700 -1,080 Descending Boston Center
11:07PM 42.6347 -76.1856 85° East 499 574 24,600 -1,080 Descending Boston Center
11:08PM 42.6431 -75.9883 87° East 509 586 23,600 -1,020 Descending Boston Center
11:09PM 42.6531 -75.7969 86° East 509 586 22,600 -1,020 Descending Boston Center
11:10PM 42.6647 -75.6083 85° East 514 592 21,600 -1,020 Descending Boston Center
11:11PM 42.6736 -75.4308 86° East 501 577 20,600 -1,020 Descending Boston Center
11:12PM 42.6847 -75.2478 85° East 486 559 19,600 -1,380 Descending Boston Center
11:13PM 42.6892 -75.1492 86° East 478 550 18,300 -1,800 Descending Boston Center
11:14PM 42.7008 -74.9067 86° East 456 525 16,000 -2,040 Descending Boston Center
11:15PM 42.7064 -74.7428 87° East 436 502 13,800 -2,100 Descending Boston Center
11:16PM 42.6947 -74.5900 96° East 417 480 11,900 -1,500 Descending Boston Center
11:17PM 42.6703 -74.4478 103° East 387 445 10,900 -1,080 Descending Boston Center
11:18PM 42.6514 -74.3342 103° East 333 383 9,800 -1,560 Descending Boston Center
11:19PM 42.6322 -74.2319 104° East 286 329 7,800 -1,800 Descending Boston Center
11:20PM 42.6131 -74.1244 104° East 281 323 6,200 -1,620 Descending Boston Center
11:21PM 42.5975 -74.0364 103° East 281 323 4,600 -1,140 Descending Boston Center
11:22PM 42.5822 -73.9317 101° East 268 308 4,000 -660 Descending Boston Center